createdAt,value
2022-09-25T00:01:59.083Z,12.59
2022-09-25T00:04:30.527Z,12.24
2022-09-25T00:07:00.310Z,12.50
2022-09-25T00:09:30.146Z,12.60
2022-09-25T00:12:00.995Z,12.64
2022-09-25T00:14:31.098Z,12.64
2022-09-25T00:17:00.938Z,12.51
2022-09-25T00:19:49.761Z,12.33
2022-09-25T00:22:20.374Z,12.43
2022-09-25T00:24:50.608Z,12.40
2022-09-25T00:27:20.649Z,12.23
2022-09-25T00:29:50.570Z,12.24
2022-09-25T00:32:23.720Z,12.33
2022-09-25T00:34:55.012Z,12.43
2022-09-25T00:37:24.841Z,12.32
2022-09-25T00:39:55.107Z,12.31
2022-09-25T00:42:24.916Z,12.29
2022-09-25T00:45:01.086Z,12.06
2022-09-25T00:47:58.750Z,11.99
2022-09-25T00:50:35.176Z,11.95
2022-09-25T00:53:10.697Z,11.80
2022-09-25T00:55:44.228Z,11.69
2022-09-25T00:58:18.056Z,11.91
2022-09-25T01:00:48.303Z,11.74
2022-09-25T01:03:19.095Z,11.49
2022-09-25T01:05:51.100Z,11.67
2022-09-25T01:08:24.992Z,11.91
2022-09-25T01:10:55.759Z,11.62
2022-09-25T01:13:25.977Z,11.44
2022-09-25T01:16:00.624Z,11.37
2022-09-25T01:18:45.329Z,11.52
2022-09-25T01:21:31.720Z,11.54
2022-09-25T01:24:24.946Z,11.61
2022-09-25T01:27:21.120Z,11.64
2022-09-25T01:29:58.656Z,11.49
2022-09-25T01:32:34.517Z,11.24
2022-09-25T01:35:09.809Z,11.35
2022-09-25T01:37:45.537Z,11.46
2022-09-25T01:40:23.396Z,11.47
2022-09-25T01:43:00.838Z,11.44
2022-09-25T01:45:37.876Z,11.35
2022-09-25T01:48:10.593Z,11.49
2022-09-25T01:50:45.533Z,11.22
2022-09-25T01:53:21.500Z,11.33
2022-09-25T01:55:57.777Z,11.27
2022-09-25T01:58:32.941Z,11.11
2022-09-25T02:01:09.101Z,11.07
2022-09-25T02:03:44.228Z,10.95
2022-09-25T02:06:19.784Z,11.08
2022-09-25T02:08:54.333Z,11.09
2022-09-25T02:11:29.588Z,10.87
2022-09-25T02:14:05.628Z,10.92
2022-09-25T02:16:43.585Z,10.85
2022-09-25T02:19:34.429Z,10.95
2022-09-25T02:22:09.069Z,10.63
2022-09-25T02:24:44.449Z,10.72
2022-09-25T02:27:15.707Z,10.64
2022-09-25T02:29:45.773Z,10.60
2022-09-25T02:32:20.136Z,10.53
2022-09-25T02:34:50.063Z,10.53
2022-09-25T02:37:20.430Z,10.51
2022-09-25T02:39:53.453Z,10.50
2022-09-25T02:42:33.813Z,10.36
2022-09-25T02:45:13.442Z,10.47
2022-09-25T02:47:58.415Z,10.53
2022-09-25T02:50:34.239Z,10.65
2022-09-25T02:53:11.088Z,10.21
2022-09-25T02:55:46.393Z,10.45
2022-09-25T02:58:19.985Z,10.36
2022-09-25T03:00:53.405Z,10.15
2022-09-25T03:03:28.053Z,10.38
2022-09-25T03:05:58.995Z,10.44
2022-09-25T03:08:41.932Z,10.32
2022-09-25T03:11:14.473Z,10.25
2022-09-25T03:13:45.495Z,10.11
2022-09-25T03:16:20.372Z,10.08
2022-09-25T03:18:51.873Z,10.02
2022-09-25T03:21:21.973Z,10.10
2022-09-25T03:23:51.737Z,10.04
2022-09-25T03:26:21.536Z,9.94
2022-09-25T03:28:51.659Z,9.61
2022-09-25T03:31:22.227Z,9.78
2022-09-25T03:33:53.634Z,10.04
2022-09-25T03:36:25.070Z,10.02
2022-09-25T03:38:58.972Z,9.78
2022-09-25T03:41:31.003Z,10.02
2022-09-25T03:44:01.304Z,9.85
2022-09-25T03:46:33.563Z,9.89
2022-09-25T03:49:05.396Z,9.66
2022-09-25T03:51:35.634Z,9.76
2022-09-25T03:54:05.713Z,9.81
2022-09-25T03:56:35.625Z,9.65
2022-09-25T03:59:05.423Z,9.81
2022-09-25T04:01:37.053Z,10.08
2022-09-25T04:04:08.828Z,10.18
2022-09-25T04:06:38.783Z,9.52
2022-09-25T04:09:08.733Z,9.70
2022-09-25T04:11:39.064Z,9.58
2022-09-25T04:14:08.900Z,9.84
2022-09-25T04:16:39.131Z,9.96
2022-09-25T04:19:11.393Z,9.91
2022-09-25T04:21:41.398Z,10.01
2022-09-25T04:24:29.231Z,10.08
2022-09-25T04:26:59.241Z,10.25
2022-09-25T04:29:29.155Z,10.41
2022-09-25T04:32:16.230Z,10.49
2022-09-25T04:34:47.807Z,10.33
2022-09-25T04:37:17.629Z,9.84
2022-09-25T04:39:47.976Z,9.78
2022-09-25T04:42:18.281Z,9.91
2022-09-25T04:44:48.045Z,10.04
2022-09-25T04:47:18.118Z,10.03
2022-09-25T04:49:49.671Z,9.88
2022-09-25T04:52:20.654Z,9.75
2022-09-25T04:54:50.474Z,9.86
2022-09-25T04:57:39.099Z,10.21
2022-09-25T05:00:19.349Z,10.36
2022-09-25T05:02:49.671Z,10.38
2022-09-25T05:05:21.029Z,10.43
2022-09-25T05:07:54.206Z,10.53
2022-09-25T05:10:24.916Z,10.64
2022-09-25T05:12:56.344Z,10.66
2022-09-25T05:15:26.671Z,10.69
2022-09-25T05:18:02.885Z,10.66
2022-09-25T05:20:36.142Z,10.74
2022-09-25T05:23:06.116Z,10.79
2022-09-25T05:25:36.275Z,10.91
2022-09-25T05:28:06.279Z,11.18
2022-09-25T05:30:37.582Z,11.14
2022-09-25T05:33:07.746Z,11.29
2022-09-25T05:35:38.929Z,11.48
2022-09-25T05:38:09.036Z,11.29
2022-09-25T05:40:40.181Z,11.66
2022-09-25T05:43:10.180Z,11.89
2022-09-25T05:45:39.927Z,11.87
2022-09-25T05:48:10.560Z,11.91
2022-09-25T05:50:41.681Z,12.06
2022-09-25T05:53:11.548Z,12.26
2022-09-25T05:55:41.433Z,12.31
2022-09-25T05:58:11.184Z,12.49
2022-09-25T06:00:41.000Z,12.58
2022-09-25T06:03:11.065Z,12.72
2022-09-25T06:05:42.609Z,12.74
2022-09-25T06:08:12.981Z,12.63
2022-09-25T06:10:43.685Z,12.66
2022-09-25T06:13:14.981Z,12.68
2022-09-25T06:15:45.208Z,12.68
2022-09-25T06:18:15.565Z,12.77
2022-09-25T06:20:49.128Z,12.96
2022-09-25T06:23:20.048Z,13.12
2022-09-25T06:25:50.308Z,13.23
2022-09-25T06:28:20.362Z,13.32
2022-09-25T06:30:50.345Z,13.44
2022-09-25T06:33:20.322Z,13.53
2022-09-25T06:35:51.488Z,13.58
2022-09-25T06:38:21.389Z,13.50
2022-09-25T06:40:51.391Z,13.65
2022-09-25T06:43:21.369Z,13.79
2022-09-25T06:45:51.501Z,13.84
2022-09-25T06:48:22.170Z,13.88
2022-09-25T06:50:55.702Z,13.83
2022-09-25T06:53:26.869Z,13.98
2022-09-25T06:55:58.485Z,14.00
2022-09-25T06:58:30.388Z,14.06
2022-09-25T07:01:09.079Z,14.13
2022-09-25T07:03:47.733Z,14.15
2022-09-25T07:06:26.148Z,14.12
2022-09-25T07:08:57.177Z,14.34
2022-09-25T07:11:29.168Z,14.34
2022-09-25T07:13:59.453Z,14.27
2022-09-25T07:16:34.465Z,14.39
2022-09-25T07:19:04.541Z,14.34
2022-09-25T07:21:35.827Z,14.33
2022-09-25T07:24:06.025Z,14.45
2022-09-25T07:26:39.782Z,14.51
2022-09-25T07:29:12.789Z,14.75
2022-09-25T07:31:44.522Z,14.92
2022-09-25T07:34:15.368Z,15.00
2022-09-25T07:36:47.539Z,15.12
2022-09-25T07:39:18.718Z,15.22
2022-09-25T07:41:49.132Z,15.37
2022-09-25T07:44:38.345Z,15.49
2022-09-25T07:47:10.791Z,15.60
2022-09-25T07:49:41.190Z,15.61
2022-09-25T07:52:14.061Z,15.69
2022-09-25T07:54:44.197Z,15.80
2022-09-25T07:57:14.626Z,15.90
2022-09-25T07:59:45.438Z,15.94
2022-09-25T08:02:15.734Z,15.88
2022-09-25T08:04:45.960Z,15.98
2022-09-25T08:07:18.684Z,16.10
2022-09-25T08:09:48.693Z,16.19
2022-09-25T08:12:18.852Z,16.27
2022-09-25T08:14:48.848Z,16.26
2022-09-25T08:17:19.083Z,16.27
2022-09-25T08:19:51.899Z,16.29
2022-09-25T08:22:23.401Z,16.35
2022-09-25T08:24:53.734Z,16.46
2022-09-25T08:27:23.819Z,16.53
2022-09-25T08:29:53.864Z,16.49
2022-09-25T08:32:26.548Z,16.63
2022-09-25T08:35:01.626Z,16.69
2022-09-25T08:37:33.216Z,16.79
2022-09-25T08:40:03.677Z,16.86
2022-09-25T08:42:38.280Z,17.00
2022-09-25T08:45:37.264Z,17.08
2022-09-25T08:48:27.220Z,17.15
2022-09-25T08:50:57.554Z,17.24
2022-09-25T08:53:29.099Z,17.50
2022-09-25T08:56:17.879Z,17.62
2022-09-25T08:58:53.348Z,17.68
2022-09-25T09:01:27.237Z,17.83
2022-09-25T09:04:05.751Z,18.00
2022-09-25T09:06:38.995Z,18.09
2022-09-25T09:09:16.142Z,18.21
2022-09-25T09:11:52.668Z,18.22
2022-09-25T09:14:23.743Z,18.21
2022-09-25T09:17:01.421Z,18.34
2022-09-25T09:19:31.474Z,18.24
2022-09-25T09:22:10.714Z,18.36
2022-09-25T09:24:55.037Z,18.32
2022-09-25T09:27:52.136Z,18.57
2022-09-25T09:30:28.471Z,18.68
2022-09-25T09:33:18.479Z,18.59
2022-09-25T09:36:00.173Z,18.74
2022-09-25T09:38:39.692Z,18.85
2022-09-25T09:41:35.273Z,18.99
2022-09-25T09:44:20.394Z,19.02
2022-09-25T09:46:59.136Z,19.10
2022-09-25T09:49:34.405Z,19.25
2022-09-25T09:52:10.668Z,19.24
2022-09-25T09:54:46.266Z,19.34
2022-09-25T09:57:23.314Z,19.44
2022-09-25T10:00:04.402Z,19.40
2022-09-25T10:02:40.016Z,19.51
2022-09-25T10:05:28.824Z,19.48
2022-09-25T10:07:59.063Z,19.45
2022-09-25T10:10:35.730Z,19.41
2022-09-25T10:13:16.524Z,19.14
2022-09-25T10:15:51.382Z,19.65
2022-09-25T10:18:23.970Z,19.77
2022-09-25T10:21:04.126Z,19.79
2022-09-25T10:23:40.128Z,19.87
2022-09-25T10:26:26.506Z,19.76
2022-09-25T10:28:59.822Z,20.12
2022-09-25T10:31:33.991Z,20.22
2022-09-25T10:34:07.122Z,20.32
2022-09-25T10:36:40.678Z,20.30
2022-09-25T10:39:46.958Z,20.36
2022-09-25T10:42:38.910Z,19.38
2022-09-25T10:45:31.199Z,20.69
2022-09-25T10:48:18.625Z,20.80
2022-09-25T10:51:08.162Z,20.76
2022-09-25T10:53:38.363Z,20.84
2022-09-25T10:56:12.714Z,20.91
2022-09-25T10:58:46.413Z,20.78
2022-09-25T11:01:18.662Z,20.91
2022-09-25T11:03:53.824Z,20.99
2022-09-25T11:06:27.026Z,20.89
2022-09-25T11:09:08.096Z,21.16
2022-09-25T11:11:41.216Z,21.27
2022-09-25T11:14:22.737Z,21.31
2022-09-25T11:16:57.629Z,21.43
2022-09-25T11:19:30.199Z,21.38
2022-09-25T11:22:17.954Z,21.17
2022-09-25T11:25:02.919Z,21.49
2022-09-25T11:27:38.136Z,21.55
2022-09-25T11:30:13.295Z,21.44
2022-09-25T11:32:53.001Z,21.54
2022-09-25T11:35:44.984Z,21.79
2022-09-25T11:38:43.788Z,21.67
2022-09-25T11:41:23.378Z,21.68
2022-09-25T11:44:03.358Z,21.63
2022-09-25T11:46:42.923Z,21.46
2022-09-25T11:49:22.792Z,21.61
2022-09-25T11:52:37.466Z,21.79
2022-09-25T11:55:32.088Z,21.72
2022-09-25T11:58:11.493Z,21.78
2022-09-25T12:00:47.178Z,21.78
2022-09-25T12:03:44.525Z,21.66
2022-09-25T12:06:38.854Z,21.79
2022-09-25T12:09:23.635Z,21.85
2022-09-25T12:12:03.544Z,21.99
2022-09-25T12:14:43.504Z,21.91
2022-09-25T12:17:21.228Z,22.07
2022-09-25T12:19:59.749Z,21.74
2022-09-25T12:22:44.585Z,21.97
2022-09-25T12:25:27.112Z,22.09
2022-09-25T12:28:03.419Z,22.09
2022-09-25T12:30:40.379Z,22.23
2022-09-25T12:33:23.686Z,22.27
2022-09-25T12:35:59.474Z,22.15
2022-09-25T12:38:39.950Z,22.40
2022-09-25T12:41:18.108Z,22.23
2022-09-25T12:43:54.371Z,22.25
2022-09-25T12:46:30.188Z,22.25
2022-09-25T12:49:05.810Z,22.24
2022-09-25T12:51:41.608Z,22.19
2022-09-25T12:54:25.981Z,22.10
2022-09-25T12:57:00.136Z,21.98
2022-09-25T12:59:36.373Z,22.06
2022-09-25T13:02:12.519Z,22.13
2022-09-25T13:04:59.165Z,22.08
2022-09-25T13:07:35.498Z,22.16
2022-09-25T13:10:19.346Z,22.15
2022-09-25T13:12:51.318Z,22.16
2022-09-25T13:15:25.164Z,22.06
2022-09-25T13:17:56.006Z,22.22
2022-09-25T13:20:49.067Z,22.19
2022-09-25T13:23:28.608Z,22.13
2022-09-25T13:26:03.143Z,22.17
2022-09-25T13:28:37.313Z,22.18
2022-09-25T13:31:11.269Z,21.97
2022-09-25T13:33:50.193Z,22.24
2022-09-25T13:36:34.453Z,22.13
2022-09-25T13:39:23.532Z,22.14
2022-09-25T13:41:59.821Z,22.13
2022-09-25T13:45:06.521Z,21.97
2022-09-25T13:48:01.720Z,21.95
2022-09-25T13:50:45.456Z,21.85
2022-09-25T13:53:28.083Z,21.83
2022-09-25T13:56:29.245Z,21.94
2022-09-25T13:59:36.319Z,21.87
2022-09-25T14:02:38.882Z,21.91
2022-09-25T14:05:09.049Z,21.91
2022-09-25T14:07:42.124Z,21.90
2022-09-25T14:10:13.098Z,21.80
2022-09-25T14:12:45.539Z,21.82
2022-09-25T14:15:24.144Z,21.78
2022-09-25T14:17:57.052Z,21.69
2022-09-25T14:20:34.549Z,21.67
2022-09-25T14:23:08.345Z,21.71
2022-09-25T14:25:40.855Z,21.69
2022-09-25T14:28:23.403Z,21.64
2022-09-25T14:31:18.115Z,21.66
2022-09-25T14:34:12.583Z,21.60
2022-09-25T14:37:00.637Z,21.58
2022-09-25T14:39:40.074Z,21.47
2022-09-25T14:42:38.189Z,21.36
2022-09-25T14:45:32.472Z,21.19
2022-09-25T14:48:07.118Z,21.20
2022-09-25T14:50:46.764Z,21.15
2022-09-25T14:53:27.876Z,21.16
2022-09-25T14:56:01.942Z,21.08
2022-09-25T14:58:34.397Z,21.03
2022-09-25T15:01:15.244Z,21.02
2022-09-25T15:03:50.192Z,21.00
2022-09-25T15:06:29.332Z,20.94
2022-09-25T15:09:01.966Z,20.94
2022-09-25T15:11:41.300Z,20.92
2022-09-25T15:14:12.962Z,20.87
2022-09-25T15:17:02.045Z,20.82
2022-09-25T15:19:36.142Z,20.79
2022-09-25T15:22:11.523Z,20.77
2022-09-25T15:24:49.665Z,20.77
2022-09-25T15:27:23.033Z,20.68
2022-09-25T15:29:53.305Z,20.63
2022-09-25T15:32:29.514Z,20.65
2022-09-25T15:35:18.468Z,20.52
2022-09-25T15:37:49.311Z,20.68
2022-09-25T15:40:25.818Z,20.65
2022-09-25T15:42:56.716Z,20.58
2022-09-25T15:45:38.232Z,20.50
2022-09-25T15:48:30.233Z,20.40
2022-09-25T15:51:04.049Z,20.37
2022-09-25T15:53:36.382Z,20.25
2022-09-25T15:56:17.365Z,20.30
2022-09-25T15:58:50.481Z,20.39
2022-09-25T16:01:42.313Z,20.38
2022-09-25T16:04:39.353Z,20.30
2022-09-25T16:07:34.080Z,20.21
2022-09-25T16:10:20.529Z,20.30
2022-09-25T16:12:54.503Z,20.18
2022-09-25T16:15:51.008Z,20.25
2022-09-25T16:18:42.039Z,20.11
2022-09-25T16:21:22.630Z,20.07
2022-09-25T16:23:56.686Z,19.93
2022-09-25T16:26:39.039Z,19.94
2022-09-25T16:29:22.945Z,20.05
2022-09-25T16:31:57.408Z,19.94
2022-09-25T16:34:30.321Z,19.78
2022-09-25T16:37:04.391Z,19.84
2022-09-25T16:39:37.389Z,19.76
2022-09-25T16:42:27.315Z,19.73
2022-09-25T16:45:05.187Z,19.64
2022-09-25T16:47:37.312Z,19.65
2022-09-25T16:50:09.996Z,19.66
2022-09-25T16:52:43.416Z,19.58
2022-09-25T16:55:24.411Z,19.49
2022-09-25T16:57:55.621Z,19.47
2022-09-25T17:00:28.677Z,19.40
2022-09-25T17:02:59.057Z,19.34
2022-09-25T17:05:32.088Z,19.30
2022-09-25T17:08:18.226Z,19.27
2022-09-25T17:10:52.420Z,19.22
2022-09-25T17:13:28.462Z,19.18
2022-09-25T17:15:58.757Z,19.12
2022-09-25T17:18:29.012Z,19.05
2022-09-25T17:21:02.706Z,19.00
2022-09-25T17:23:36.996Z,18.94
2022-09-25T17:26:17.891Z,18.91
2022-09-25T17:28:48.184Z,18.92
2022-09-25T17:31:24.214Z,18.86
2022-09-25T17:33:57.703Z,18.72
2022-09-25T17:36:27.720Z,18.72
2022-09-25T17:38:57.741Z,18.45
2022-09-25T17:41:34.769Z,18.68
2022-09-25T17:44:06.427Z,18.67
2022-09-25T17:46:36.578Z,18.67
2022-09-25T17:49:06.847Z,18.68
2022-09-25T17:51:37.159Z,18.64
2022-09-25T17:54:11.499Z,18.38
2022-09-25T17:56:45.549Z,18.58
2022-09-25T17:59:15.907Z,18.56
2022-09-25T18:01:47.295Z,18.56
2022-09-25T18:04:22.514Z,18.39
2022-09-25T18:06:55.924Z,18.47
2022-09-25T18:09:26.864Z,18.40
2022-09-25T18:11:58.321Z,18.42
2022-09-25T18:14:28.405Z,18.39
2022-09-25T18:16:58.878Z,18.35
2022-09-25T18:19:49.375Z,18.35
2022-09-25T18:22:22.080Z,18.21
2022-09-25T18:25:05.877Z,18.15
2022-09-25T18:27:41.855Z,18.04
2022-09-25T18:30:19.224Z,17.94
2022-09-25T18:32:49.821Z,17.97
2022-09-25T18:35:23.942Z,17.89
2022-09-25T18:37:56.701Z,17.86
2022-09-25T18:40:27.436Z,17.77
2022-09-25T18:43:06.844Z,17.73
2022-09-25T18:45:40.070Z,17.66
2022-09-25T18:48:12.138Z,17.62
2022-09-25T18:50:42.156Z,17.43
2022-09-25T18:53:12.453Z,17.44
2022-09-25T18:55:43.982Z,17.38
2022-09-25T18:58:15.462Z,17.37
2022-09-25T19:00:49.141Z,17.39
2022-09-25T19:03:19.346Z,17.40
2022-09-25T19:06:01.085Z,17.41
2022-09-25T19:08:34.622Z,17.33
2022-09-25T19:11:04.877Z,17.28
2022-09-25T19:13:38.260Z,17.23
2022-09-25T19:16:09.325Z,17.15
2022-09-25T19:18:39.573Z,17.09
2022-09-25T19:21:15.015Z,17.11
2022-09-25T19:23:49.324Z,17.06
2022-09-25T19:26:23.712Z,17.04
2022-09-25T19:28:55.920Z,17.01
2022-09-25T19:31:27.526Z,16.95
2022-09-25T19:33:58.263Z,16.95
2022-09-25T19:36:33.526Z,16.83
2022-09-25T19:39:04.505Z,16.75
2022-09-25T19:41:36.831Z,16.64
2022-09-25T19:44:13.649Z,16.71
2022-09-25T19:46:44.587Z,16.71
2022-09-25T19:49:16.334Z,16.68
2022-09-25T19:51:48.735Z,16.60
2022-09-25T19:54:18.808Z,16.50
2022-09-25T19:56:49.962Z,16.42
2022-09-25T19:59:21.567Z,16.49
2022-09-25T20:01:52.495Z,16.54
2022-09-25T20:04:25.204Z,16.53
2022-09-25T20:06:55.782Z,16.38
2022-09-25T20:09:26.364Z,16.34
2022-09-25T20:11:58.360Z,16.38
2022-09-25T20:14:29.745Z,16.43
2022-09-25T20:17:02.250Z,16.36
2022-09-25T20:19:33.573Z,16.34
2022-09-25T20:22:03.712Z,16.34
2022-09-25T20:24:34.049Z,16.36
2022-09-25T20:27:04.375Z,16.26
2022-09-25T20:29:38.386Z,16.14
2022-09-25T20:32:08.457Z,16.15
2022-09-25T20:34:38.635Z,16.14
2022-09-25T20:37:10.785Z,16.15
2022-09-25T20:39:41.804Z,16.02
2022-09-25T20:42:11.858Z,16.05
2022-09-25T20:44:43.184Z,15.81
2022-09-25T20:47:13.120Z,15.97
2022-09-25T20:49:44.021Z,15.91
2022-09-25T20:52:14.198Z,15.91
2022-09-25T20:54:46.840Z,15.94
2022-09-25T20:57:17.076Z,15.84
2022-09-25T20:59:48.530Z,15.81
2022-09-25T21:02:18.854Z,15.76
2022-09-25T21:04:51.195Z,15.77
2022-09-25T21:07:21.164Z,15.76
2022-09-25T21:09:51.162Z,15.73
2022-09-25T21:12:22.409Z,15.70
2022-09-25T21:14:53.701Z,15.62
2022-09-25T21:17:23.890Z,15.47
2022-09-25T21:19:54.594Z,15.46
2022-09-25T21:22:24.617Z,15.40
2022-09-25T21:24:57.258Z,15.39
2022-09-25T21:27:27.224Z,15.40
2022-09-25T21:29:58.571Z,15.38
2022-09-25T21:32:30.263Z,15.39
2022-09-25T21:35:00.256Z,15.27
2022-09-25T21:37:30.456Z,15.11
2022-09-25T21:40:00.414Z,15.10
2022-09-25T21:42:31.223Z,15.12
2022-09-25T21:45:05.111Z,15.09
2022-09-25T21:47:35.104Z,15.10
2022-09-25T21:50:05.825Z,15.28
2022-09-25T21:52:35.771Z,15.26
2022-09-25T21:55:06.592Z,15.34
2022-09-25T21:57:36.849Z,15.37
2022-09-25T22:00:10.001Z,15.14
2022-09-25T22:02:40.076Z,15.10
2022-09-25T22:05:11.427Z,15.12
2022-09-25T22:07:42.570Z,15.13
2022-09-25T22:10:12.414Z,15.05
2022-09-25T22:12:42.259Z,14.94
2022-09-25T22:15:13.861Z,14.93
2022-09-25T22:17:43.707Z,14.82
2022-09-25T22:20:13.633Z,14.79
2022-09-25T22:22:43.480Z,14.90
2022-09-25T22:25:13.331Z,14.73
2022-09-25T22:27:43.091Z,14.85
2022-09-25T22:30:14.602Z,14.83
2022-09-25T22:32:45.148Z,14.75
2022-09-25T22:35:15.028Z,14.79
2022-09-25T22:37:44.813Z,14.85
2022-09-25T22:40:14.812Z,14.64
2022-09-25T22:42:44.643Z,14.67
2022-09-25T22:45:15.954Z,14.57
2022-09-25T22:47:45.756Z,14.43
2022-09-25T22:50:15.705Z,14.47
2022-09-25T22:52:45.556Z,14.54
2022-09-25T22:55:15.506Z,14.48
2022-09-25T22:57:45.345Z,14.55
2022-09-25T23:00:16.781Z,14.54
2022-09-25T23:02:46.847Z,14.24
2022-09-25T23:05:16.784Z,14.45
2022-09-25T23:07:46.608Z,14.59
2022-09-25T23:10:16.470Z,14.47
2022-09-25T23:12:46.296Z,14.39
2022-09-25T23:15:17.592Z,14.42
2022-09-25T23:17:47.321Z,14.32
2022-09-25T23:20:17.318Z,14.28
2022-09-25T23:22:47.239Z,14.41
2022-09-25T23:25:17.850Z,14.43
2022-09-25T23:27:47.600Z,13.98
2022-09-25T23:30:19.154Z,14.17
2022-09-25T23:32:48.901Z,14.29
2022-09-25T23:35:19.009Z,14.28
2022-09-25T23:37:48.792Z,14.25
2022-09-25T23:40:18.775Z,14.23
2022-09-25T23:42:50.300Z,14.20
2022-09-25T23:45:21.507Z,14.10
2022-09-25T23:47:51.246Z,14.06
2022-09-25T23:50:21.038Z,14.06
2022-09-25T23:52:52.301Z,13.88
2022-09-25T23:55:22.128Z,13.85
2022-09-25T23:57:51.990Z,13.88
